Angel Fire, New Mexico
Current Conditions -  °F | °C
As of 3:15 AM on Thursday 18 Dec 2014 (Local Time) from KAXX Reporting Station
Light Snow Light Snow  
Wind Chill: 19°   Ceiling: 1600
Heat Index: 28°   Visibility: 7mi
Dew Point: 23°   Wind: 9mph
Humidity: 83%   Direction: 240°WSW
Pressure: 30.05"   Gusts: NA
Location:  36.39°N, 105.29°W
Report Text: KAXX 181015Z AUTO 24008KT 7SM -SN BKN016 BKN028 OVC045 M02/M05 A3005 RMK AO2 T10251051
Loading
Personal Weather Stations






























Interactive Weather Map New forecast layout! Learn more

10-Day Weather Forecast

Advertisements
Track Severe Weather on mobile